createdAt,value
2022-10-05T00:00:09.240Z,12.86
2022-10-05T00:00:20.450Z,12.86
2022-10-05T00:00:30.451Z,12.85
2022-10-05T00:00:40.439Z,12.85
2022-10-05T00:00:50.039Z,12.84
2022-10-05T00:00:59.098Z,12.84
2022-10-05T00:01:10.439Z,12.85
2022-10-05T00:01:19.021Z,12.84
2022-10-05T00:01:30.007Z,12.85
2022-10-05T00:01:40.473Z,12.84
2022-10-05T00:01:50.466Z,12.84
2022-10-05T00:01:59.019Z,12.84
2022-10-05T00:02:09.978Z,12.84
2022-10-05T00:02:18.979Z,12.83
2022-10-05T00:02:30.450Z,12.84
2022-10-05T00:02:40.450Z,12.82
2022-10-05T00:02:49.852Z,12.82
2022-10-05T00:03:00.460Z,12.83
2022-10-05T00:03:08.990Z,12.83
2022-10-05T00:03:20.431Z,12.84
2022-10-05T00:03:30.445Z,12.82
2022-10-05T00:03:40.429Z,12.82
2022-10-05T00:03:50.475Z,12.82
2022-10-05T00:04:00.461Z,12.82
2022-10-05T00:04:10.011Z,12.81
2022-10-05T00:04:18.971Z,12.82
2022-10-05T00:04:30.468Z,12.82
2022-10-05T00:04:40.442Z,12.80
2022-10-05T00:04:50.450Z,12.80
2022-10-05T00:04:59.030Z,12.80
2022-10-05T00:05:09.074Z,12.81
2022-10-05T00:05:19.056Z,12.79
2022-10-05T00:05:29.030Z,12.79
2022-10-05T00:05:40.410Z,12.79
2022-10-05T00:05:48.961Z,12.77
2022-10-05T00:05:58.981Z,12.77
2022-10-05T00:06:09.941Z,12.77
2022-10-05T00:06:20.421Z,12.76
2022-10-05T00:06:30.433Z,12.75
2022-10-05T00:06:40.411Z,12.75
2022-10-05T00:06:50.404Z,12.75
2022-10-05T00:07:00.441Z,12.75
2022-10-05T00:07:10.401Z,12.76
2022-10-05T00:07:18.975Z,12.75
2022-10-05T00:07:28.962Z,12.76
2022-10-05T00:07:38.951Z,12.76
2022-10-05T00:07:50.412Z,12.76
2022-10-05T00:08:00.382Z,12.75
2022-10-05T00:08:08.968Z,12.74
2022-10-05T00:08:20.400Z,12.75
2022-10-05T00:08:30.391Z,12.75
2022-10-05T00:08:40.391Z,12.74
2022-10-05T00:08:50.404Z,12.74
2022-10-05T00:09:00.394Z,12.75
2022-10-05T00:09:10.391Z,12.74
2022-10-05T00:09:20.385Z,12.74
2022-10-05T00:09:30.375Z,12.74
2022-10-05T00:09:40.383Z,12.74
2022-10-05T00:09:48.944Z,12.73
2022-10-05T00:09:58.934Z,12.74
2022-10-05T00:10:08.942Z,12.74
2022-10-05T00:10:18.949Z,12.73
2022-10-05T00:10:29.531Z,12.72
2022-10-05T00:10:38.921Z,12.72
2022-10-05T00:10:49.851Z,12.72
2022-10-05T00:10:58.956Z,12.70
2022-10-05T00:11:10.371Z,12.72
2022-10-05T00:11:19.802Z,12.71
2022-10-05T00:11:28.955Z,12.72
2022-10-05T00:11:40.386Z,12.72
2022-10-05T00:11:49.873Z,12.71
2022-10-05T00:11:58.916Z,12.71
2022-10-05T00:12:08.924Z,12.72
2022-10-05T00:12:20.374Z,12.72
2022-10-05T00:12:30.367Z,12.71
2022-10-05T00:12:40.376Z,12.71
2022-10-05T00:12:48.932Z,12.70
2022-10-05T00:12:59.892Z,12.71
2022-10-05T00:13:08.922Z,12.70
2022-10-05T00:13:18.935Z,12.71
2022-10-05T00:13:30.381Z,12.71
2022-10-05T00:13:40.345Z,12.70
2022-10-05T00:13:48.910Z,12.70
2022-10-05T00:13:59.004Z,12.72
2022-10-05T00:14:09.782Z,12.70
2022-10-05T00:14:20.353Z,12.69
2022-10-05T00:14:28.902Z,12.69
2022-10-05T00:14:38.913Z,12.69
2022-10-05T00:14:48.915Z,12.70
2022-10-05T00:14:58.914Z,12.70
2022-10-05T00:15:08.902Z,12.69
2022-10-05T00:15:18.896Z,12.69
2022-10-05T00:15:30.355Z,12.68
2022-10-05T00:15:38.895Z,12.67
2022-10-05T00:15:50.351Z,12.68
2022-10-05T00:15:58.894Z,12.67
2022-10-05T00:16:08.933Z,12.67
2022-10-05T00:16:20.408Z,12.66
2022-10-05T00:16:28.943Z,12.65
2022-10-05T00:16:40.377Z,12.66
2022-10-05T00:16:49.491Z,12.65
2022-10-05T00:16:58.948Z,12.66
2022-10-05T00:17:08.900Z,12.65
2022-10-05T00:17:19.737Z,12.66
2022-10-05T00:17:28.889Z,12.65
2022-10-05T00:17:40.343Z,12.66
2022-10-05T00:17:49.482Z,12.64
2022-10-05T00:17:59.803Z,12.66
2022-10-05T00:18:10.333Z,12.64
2022-10-05T00:18:20.313Z,12.64
2022-10-05T00:18:29.624Z,12.64
2022-10-05T00:18:40.326Z,12.65
2022-10-05T00:18:50.337Z,12.65
2022-10-05T00:18:58.905Z,12.64
2022-10-05T00:19:10.353Z,12.66
2022-10-05T00:19:19.494Z,12.65
2022-10-05T00:19:28.846Z,12.65
2022-10-05T00:19:40.315Z,12.65
2022-10-05T00:19:50.317Z,12.64
2022-10-05T00:20:00.313Z,12.65
2022-10-05T00:20:10.314Z,12.65
2022-10-05T00:20:20.303Z,12.64
2022-10-05T00:20:28.854Z,12.64
2022-10-05T00:20:40.325Z,12.66
2022-10-05T00:20:50.306Z,12.63
2022-10-05T00:20:58.862Z,12.64
2022-10-05T00:21:10.315Z,12.65
2022-10-05T00:21:18.847Z,12.64
2022-10-05T00:21:30.304Z,12.65
2022-10-05T00:21:40.295Z,12.62
2022-10-05T00:21:49.504Z,12.63
2022-10-05T00:21:58.824Z,12.63
2022-10-05T00:22:10.285Z,12.63
2022-10-05T00:22:18.902Z,12.61
2022-10-05T00:22:30.286Z,12.61
2022-10-05T00:22:40.294Z,12.59
2022-10-05T00:22:48.834Z,12.58
2022-10-05T00:23:00.313Z,12.59
2022-10-05T00:23:08.834Z,12.57
2022-10-05T00:23:18.905Z,12.58
2022-10-05T00:23:30.084Z,12.57
2022-10-05T00:23:38.845Z,12.55
2022-10-05T00:23:48.909Z,12.56
2022-10-05T00:23:59.055Z,12.55
2022-10-05T00:24:08.977Z,12.54
2022-10-05T00:24:18.915Z,12.54
2022-10-05T00:24:28.944Z,12.54
2022-10-05T00:24:38.837Z,12.54
2022-10-05T00:24:49.014Z,12.53
2022-10-05T00:24:58.946Z,12.52
2022-10-05T00:25:08.816Z,12.51
2022-10-05T00:25:20.296Z,12.51
2022-10-05T00:25:30.266Z,12.49
2022-10-05T00:25:39.780Z,12.48
2022-10-05T00:25:50.286Z,12.48
2022-10-05T00:26:00.256Z,12.48
2022-10-05T00:26:08.816Z,12.47
2022-10-05T00:26:18.835Z,12.47
2022-10-05T00:26:28.854Z,12.46
2022-10-05T00:26:38.828Z,12.45
2022-10-05T00:26:54.171Z,12.44
2022-10-05T00:27:01.347Z,12.38
2022-10-05T00:27:11.326Z,12.40
2022-10-05T00:27:20.065Z,12.40
2022-10-05T00:27:31.306Z,12.40
2022-10-05T00:27:41.315Z,12.38
2022-10-05T00:27:51.326Z,12.36
2022-10-05T00:28:01.366Z,12.36
2022-10-05T00:28:10.191Z,12.35
2022-10-05T00:28:21.366Z,12.34
2022-10-05T00:28:31.332Z,12.32
2022-10-05T00:28:39.856Z,12.31
2022-10-05T00:28:51.329Z,12.31
2022-10-05T00:29:01.319Z,12.30
2022-10-05T00:29:11.296Z,12.29
2022-10-05T00:29:21.196Z,12.29
2022-10-05T00:29:31.289Z,12.29
2022-10-05T00:29:40.816Z,12.27
2022-10-05T00:29:50.836Z,12.26
2022-10-05T00:30:01.324Z,12.25
2022-10-05T00:30:09.825Z,12.24
2022-10-05T00:30:20.182Z,12.24
2022-10-05T00:30:31.277Z,12.22
2022-10-05T00:30:40.766Z,12.21
2022-10-05T00:30:49.861Z,12.20
2022-10-05T00:30:59.867Z,12.20
2022-10-05T00:31:11.432Z,12.18
2022-10-05T00:31:21.387Z,12.15
2022-10-05T00:31:31.333Z,12.15
2022-10-05T00:31:39.871Z,12.14
2022-10-05T00:31:51.410Z,12.15
2022-10-05T00:32:01.355Z,12.12
2022-10-05T00:32:09.961Z,12.12
2022-10-05T00:32:19.847Z,12.12
2022-10-05T00:32:31.277Z,12.11
2022-10-05T00:32:39.838Z,12.10
2022-10-05T00:32:53.015Z,12.10
2022-10-05T00:33:00.786Z,12.04
2022-10-05T00:33:12.237Z,12.07
2022-10-05T00:33:22.228Z,12.07
2022-10-05T00:33:32.220Z,12.07
2022-10-05T00:33:40.767Z,12.06
2022-10-05T00:33:50.776Z,12.08
2022-10-05T00:34:00.787Z,12.07
2022-10-05T00:34:10.767Z,12.07
2022-10-05T00:34:22.231Z,12.06
2022-10-05T00:34:32.219Z,12.05
2022-10-05T00:34:42.210Z,12.05
2022-10-05T00:34:50.767Z,12.05
2022-10-05T00:35:00.770Z,12.06
2022-10-05T00:35:12.198Z,12.04
2022-10-05T00:35:20.759Z,12.03
2022-10-05T00:35:30.779Z,12.04
2022-10-05T00:35:40.768Z,12.03
2022-10-05T00:35:50.771Z,12.02
2022-10-05T00:36:01.389Z,12.01
2022-10-05T00:36:12.199Z,12.00
2022-10-05T00:36:20.939Z,11.99
2022-10-05T00:36:32.180Z,11.99
2022-10-05T00:36:40.762Z,11.97
2022-10-05T00:36:50.761Z,11.98
2022-10-05T00:37:02.218Z,11.96
2022-10-05T00:37:10.737Z,11.95
2022-10-05T00:37:22.208Z,11.95
2022-10-05T00:37:32.191Z,11.93
2022-10-05T00:37:40.739Z,11.94
2022-10-05T00:37:52.199Z,11.94
2022-10-05T00:38:02.189Z,11.92
2022-10-05T00:38:10.739Z,11.92
2022-10-05T00:38:22.199Z,11.93
2022-10-05T00:38:32.179Z,11.92
2022-10-05T00:38:40.741Z,11.92
2022-10-05T00:38:50.751Z,11.94
2022-10-05T00:39:00.762Z,11.94
2022-10-05T00:39:10.740Z,11.94
2022-10-05T00:39:22.198Z,11.94
2022-10-05T00:39:30.727Z,11.95
2022-10-05T00:39:42.181Z,11.96
2022-10-05T00:39:52.169Z,11.95
2022-10-05T00:40:00.759Z,11.95
2022-10-05T00:40:10.731Z,11.97
2022-10-05T00:40:22.194Z,11.97
2022-10-05T00:40:31.669Z,11.95
2022-10-05T00:40:42.179Z,11.96
2022-10-05T00:40:50.709Z,11.96
2022-10-05T00:41:00.738Z,11.96
2022-10-05T00:41:10.720Z,11.96
2022-10-05T00:41:20.751Z,11.96
2022-10-05T00:41:30.720Z,11.96
2022-10-05T00:41:40.728Z,11.95
2022-10-05T00:41:52.189Z,11.94
2022-10-05T00:42:00.719Z,11.94
2022-10-05T00:42:12.159Z,11.94
2022-10-05T00:42:20.700Z,11.92
2022-10-05T00:42:32.179Z,11.93
2022-10-05T00:42:42.160Z,11.92
2022-10-05T00:42:50.710Z,11.91
2022-10-05T00:43:00.710Z,11.93
2022-10-05T00:43:12.151Z,11.92
2022-10-05T00:43:20.699Z,11.94
2022-10-05T00:43:30.697Z,11.98
2022-10-05T00:43:40.719Z,11.98
2022-10-05T00:43:52.160Z,11.98
2022-10-05T00:44:02.141Z,11.98
2022-10-05T00:44:10.701Z,11.99
2022-10-05T00:44:20.710Z,12.00
2022-10-05T00:44:32.161Z,12.00
2022-10-05T00:44:42.142Z,11.99
2022-10-05T00:44:52.140Z,12.00
2022-10-05T00:45:02.144Z,12.00
2022-10-05T00:45:12.120Z,11.99
2022-10-05T00:45:21.660Z,11.98
2022-10-05T00:45:32.183Z,11.98
2022-10-05T00:45:42.176Z,11.97
2022-10-05T00:45:50.720Z,11.98
2022-10-05T00:46:00.745Z,11.98
2022-10-05T00:46:12.185Z,11.96
2022-10-05T00:46:22.299Z,11.94
2022-10-05T00:46:30.661Z,11.94
2022-10-05T00:46:40.690Z,11.94
2022-10-05T00:46:52.135Z,11.93
2022-10-05T00:47:00.679Z,11.92
2022-10-05T00:47:12.131Z,11.91
2022-10-05T00:47:21.464Z,11.88
2022-10-05T00:47:30.667Z,11.88
2022-10-05T00:47:42.120Z,11.87
2022-10-05T00:47:52.111Z,11.85
2022-10-05T00:48:00.670Z,11.84
2022-10-05T00:48:12.121Z,11.85
2022-10-05T00:48:20.669Z,11.83
2022-10-05T00:48:32.102Z,11.83
2022-10-05T00:48:42.106Z,11.80
2022-10-05T00:48:51.122Z,11.80
2022-10-05T00:49:02.092Z,11.80
2022-10-05T00:49:11.001Z,11.78
2022-10-05T00:49:21.531Z,11.78
2022-10-05T00:49:32.097Z,11.76
2022-10-05T00:49:42.094Z,11.75
2022-10-05T00:49:50.992Z,11.74
2022-10-05T00:50:00.641Z,11.73
2022-10-05T00:50:10.907Z,11.72
2022-10-05T00:50:21.134Z,11.71
2022-10-05T00:50:31.172Z,11.70
2022-10-05T00:50:40.630Z,11.69
2022-10-05T00:50:51.240Z,11.69
2022-10-05T00:51:01.195Z,11.68
2022-10-05T00:51:10.911Z,11.65
2022-10-05T00:51:21.243Z,11.63
2022-10-05T00:51:31.280Z,11.62
2022-10-05T00:51:40.702Z,11.61
2022-10-05T00:51:50.843Z,11.60
2022-10-05T00:52:01.282Z,11.59
2022-10-05T00:52:11.512Z,11.58
2022-10-05T00:52:22.169Z,11.56
2022-10-05T00:52:30.642Z,11.53
2022-10-05T00:52:40.642Z,11.51
2022-10-05T00:52:51.152Z,11.49
2022-10-05T00:53:00.615Z,11.48
2022-10-05T00:53:10.923Z,11.47
2022-10-05T00:53:22.062Z,11.46
2022-10-05T00:53:32.091Z,11.44
2022-10-05T00:53:41.573Z,11.44
2022-10-05T00:53:52.052Z,11.43
2022-10-05T00:54:00.654Z,11.43
2022-10-05T00:54:13.618Z,11.42
2022-10-05T00:54:22.070Z,11.36
2022-10-05T00:54:30.603Z,11.39
2022-10-05T00:54:40.625Z,11.39
2022-10-05T00:54:50.652Z,11.39
2022-10-05T00:55:02.058Z,11.38
2022-10-05T00:55:10.622Z,11.37
2022-10-05T00:55:20.656Z,11.39
2022-10-05T00:55:32.057Z,11.37
2022-10-05T00:55:40.733Z,11.35
2022-10-05T00:55:50.663Z,11.36
2022-10-05T00:56:00.604Z,11.35
2022-10-05T00:56:10.611Z,11.34
2022-10-05T00:56:22.075Z,11.32
2022-10-05T00:56:32.063Z,11.30
2022-10-05T00:56:41.565Z,11.30
2022-10-05T00:56:52.053Z,11.29
2022-10-05T00:57:00.624Z,11.27
2022-10-05T00:57:11.544Z,11.28
2022-10-05T00:57:20.603Z,11.26
2022-10-05T00:57:32.054Z,11.26
2022-10-05T00:57:41.545Z,11.25
2022-10-05T00:57:50.613Z,11.25
2022-10-05T00:58:02.053Z,11.24
2022-10-05T00:58:11.534Z,11.23
2022-10-05T00:58:22.044Z,11.22
2022-10-05T00:58:32.055Z,11.21
2022-10-05T00:58:42.044Z,11.21
2022-10-05T00:58:50.575Z,11.21
2022-10-05T00:59:02.049Z,11.22
2022-10-05T00:59:11.535Z,11.21
2022-10-05T00:59:20.595Z,11.21
2022-10-05T00:59:30.747Z,11.20
2022-10-05T00:59:40.652Z,11.20
2022-10-05T00:59:50.687Z,11.20
2022-10-05T01:00:02.026Z,11.20
2022-10-05T01:00:10.565Z,11.18
2022-10-05T01:00:20.576Z,11.19
2022-10-05T01:00:32.047Z,11.19
2022-10-05T01:00:42.029Z,11.17
2022-10-05T01:00:50.587Z,11.17
2022-10-05T01:01:02.092Z,11.17
2022-10-05T01:01:10.732Z,11.15
2022-10-05T01:01:20.601Z,11.14
2022-10-05T01:01:31.458Z,11.13
2022-10-05T01:01:42.005Z,11.11
2022-10-05T01:01:50.629Z,11.10
2022-10-05T01:02:00.645Z,11.11
2022-10-05T01:02:10.813Z,11.10
2022-10-05T01:02:20.779Z,11.10
2022-10-05T01:02:36.744Z,11.09
2022-10-05T01:02:41.916Z,11.03
2022-10-05T01:02:51.633Z,11.06
2022-10-05T01:03:03.055Z,11.06
2022-10-05T01:03:12.536Z,11.06
2022-10-05T01:03:21.735Z,11.06
2022-10-05T01:03:33.025Z,11.06
2022-10-05T01:03:43.034Z,11.05
2022-10-05T01:03:51.843Z,11.04
2022-10-05T01:04:01.882Z,11.05
2022-10-05T01:04:11.813Z,11.04
2022-10-05T01:04:21.836Z,11.02
2022-10-05T01:04:33.020Z,11.01
2022-10-05T01:04:41.916Z,11.00
2022-10-05T01:04:51.845Z,11.01
2022-10-05T01:05:01.875Z,10.99
2022-10-05T01:05:11.826Z,10.99
2022-10-05T01:05:21.946Z,10.99
2022-10-05T01:05:31.575Z,10.98
2022-10-05T01:05:41.576Z,10.98
2022-10-05T01:05:51.957Z,10.98
2022-10-05T01:06:01.885Z,10.96
2022-10-05T01:06:13.005Z,10.96
2022-10-05T01:06:21.956Z,10.95
2022-10-05T01:06:32.436Z,10.95
2022-10-05T01:06:43.196Z,10.92
2022-10-05T01:06:51.566Z,10.90
2022-10-05T01:07:01.566Z,10.91
2022-10-05T01:07:13.015Z,10.90
2022-10-05T01:07:21.956Z,10.88
2022-10-05T01:07:32.347Z,10.88
2022-10-05T01:07:41.559Z,10.87
2022-10-05T01:07:53.015Z,10.86
2022-10-05T01:08:02.546Z,10.84
2022-10-05T01:08:11.557Z,10.84
2022-10-05T01:08:23.020Z,10.84
2022-10-05T01:08:32.506Z,10.81
2022-10-05T01:08:41.556Z,10.80
2022-10-05T01:08:52.999Z,10.79
2022-10-05T01:09:01.621Z,10.77
2022-10-05T01:09:11.545Z,10.77
2022-10-05T01:09:21.564Z,10.77
2022-10-05T01:09:32.406Z,10.76
2022-10-05T01:09:42.987Z,10.75
2022-10-05T01:09:52.996Z,10.75
2022-10-05T01:10:01.538Z,10.75
2022-10-05T01:10:13.007Z,10.76
2022-10-05T01:10:22.987Z,10.75
2022-10-05T01:10:31.546Z,10.74
2022-10-05T01:10:41.552Z,10.74
2022-10-05T01:10:52.998Z,10.73
2022-10-05T01:11:01.556Z,10.72
2022-10-05T01:11:11.540Z,10.73
2022-10-05T01:11:23.008Z,10.73
2022-10-05T01:11:32.987Z,10.71
2022-10-05T01:11:41.541Z,10.71
2022-10-05T01:11:52.997Z,10.71
2022-10-05T01:12:02.968Z,10.71
2022-10-05T01:12:11.795Z,10.71
2022-10-05T01:12:22.957Z,10.71
2022-10-05T01:12:32.977Z,10.70
2022-10-05T01:12:42.968Z,10.70
2022-10-05T01:12:51.798Z,10.69
2022-10-05T01:13:01.646Z,10.69
2022-10-05T01:13:12.308Z,10.67
2022-10-05T01:13:22.973Z,10.66
2022-10-05T01:13:32.990Z,10.65
2022-10-05T01:13:42.967Z,10.65
2022-10-05T01:13:52.981Z,10.64
2022-10-05T01:14:03.002Z,10.63
2022-10-05T01:14:12.967Z,10.63
2022-10-05T01:14:22.986Z,10.61
2022-10-05T01:14:32.968Z,10.61
2022-10-05T01:14:41.505Z,10.60
2022-10-05T01:14:52.965Z,10.61
2022-10-05T01:15:02.955Z,10.59
2022-10-05T01:15:11.511Z,10.58
2022-10-05T01:15:21.517Z,10.58
2022-10-05T01:15:32.948Z,10.58
2022-10-05T01:15:42.947Z,10.55
2022-10-05T01:15:52.958Z,10.54
2022-10-05T01:16:02.979Z,10.52
2022-10-05T01:16:12.498Z,10.52
2022-10-05T01:16:23.011Z,10.52
2022-10-05T01:16:32.988Z,10.51
2022-10-05T01:16:43.093Z,10.52
2022-10-05T01:16:51.660Z,10.52
2022-10-05T01:17:03.004Z,10.52
2022-10-05T01:17:11.506Z,10.50
2022-10-05T01:17:22.948Z,10.52
2022-10-05T01:17:32.985Z,10.50
2022-10-05T01:17:42.941Z,10.51
2022-10-05T01:17:52.937Z,10.51
2022-10-05T01:18:02.928Z,10.51
2022-10-05T01:18:12.459Z,10.51
2022-10-05T01:18:21.488Z,10.51
2022-10-05T01:18:31.498Z,10.52
2022-10-05T01:18:42.938Z,10.51
2022-10-05T01:18:52.930Z,10.50
2022-10-05T01:19:01.490Z,10.50
2022-10-05T01:19:12.970Z,10.51
2022-10-05T01:19:22.930Z,10.51
2022-10-05T01:19:32.929Z,10.51
2022-10-05T01:19:41.477Z,10.51
2022-10-05T01:19:52.955Z,10.51
2022-10-05T01:20:02.929Z,10.50
2022-10-05T01:20:12.925Z,10.49
2022-10-05T01:20:22.940Z,10.50
2022-10-05T01:20:31.470Z,10.49
2022-10-05T01:20:42.930Z,10.51
2022-10-05T01:20:51.469Z,10.50
2022-10-05T01:21:02.928Z,10.50
2022-10-05T01:21:11.580Z,10.49
2022-10-05T01:21:21.479Z,10.51
2022-10-05T01:21:31.470Z,10.51
2022-10-05T01:21:42.919Z,10.51
2022-10-05T01:21:52.920Z,10.50
2022-10-05T01:22:01.459Z,10.50
2022-10-05T01:22:11.503Z,10.52
2022-10-05T01:22:22.919Z,10.51
2022-10-05T01:22:32.920Z,10.49
2022-10-05T01:22:41.460Z,10.47
2022-10-05T01:22:52.920Z,10.46
2022-10-05T01:23:02.911Z,10.44
2022-10-05T01:23:12.908Z,10.43
2022-10-05T01:23:22.906Z,10.42
2022-10-05T01:23:32.899Z,10.42
2022-10-05T01:23:42.898Z,10.41
2022-10-05T01:23:52.907Z,10.41
2022-10-05T01:24:02.899Z,10.41
2022-10-05T01:24:11.459Z,10.40
2022-10-05T01:24:21.452Z,10.40
2022-10-05T01:24:32.247Z,10.39
2022-10-05T01:24:42.918Z,10.38
2022-10-05T01:24:51.442Z,10.38
2022-10-05T01:25:02.199Z,10.40
2022-10-05T01:25:11.448Z,10.38
2022-10-05T01:25:22.901Z,10.39
2022-10-05T01:25:32.890Z,10.38
2022-10-05T01:25:41.437Z,10.37
2022-10-05T01:25:52.911Z,10.38
2022-10-05T01:26:02.883Z,10.35
2022-10-05T01:26:11.430Z,10.35
2022-10-05T01:26:21.461Z,10.36
2022-10-05T01:26:31.447Z,10.36
2022-10-05T01:26:42.291Z,10.36
2022-10-05T01:26:52.900Z,10.35
2022-10-05T01:27:02.870Z,10.34
2022-10-05T01:27:12.892Z,10.34
2022-10-05T01:27:21.425Z,10.34
2022-10-05T01:27:32.881Z,10.34
2022-10-05T01:27:42.871Z,10.33
2022-10-05T01:27:51.422Z,10.34
2022-10-05T01:28:01.495Z,10.34
2022-10-05T01:28:12.923Z,10.35
2022-10-05T01:28:21.457Z,10.34
2022-10-05T01:28:32.937Z,10.34
2022-10-05T01:28:41.410Z,10.33
2022-10-05T01:28:52.861Z,10.34
2022-10-05T01:29:02.881Z,10.33
2022-10-05T01:29:12.931Z,10.33
2022-10-05T01:29:21.883Z,10.33
2022-10-05T01:29:32.852Z,10.33
2022-10-05T01:29:42.888Z,10.32
2022-10-05T01:29:51.433Z,10.33
2022-10-05T01:30:02.054Z,10.34
2022-10-05T01:30:11.407Z,10.33
2022-10-05T01:30:22.866Z,10.34
2022-10-05T01:30:31.402Z,10.33
2022-10-05T01:30:42.101Z,10.34
2022-10-05T01:30:52.124Z,10.33
2022-10-05T01:31:02.171Z,10.32
2022-10-05T01:31:11.512Z,10.31
2022-10-05T01:31:21.450Z,10.31
2022-10-05T01:31:32.206Z,10.30
2022-10-05T01:31:42.946Z,10.30
2022-10-05T01:31:51.727Z,10.29
2022-10-05T01:32:02.193Z,10.29
2022-10-05T01:32:12.831Z,10.28
2022-10-05T01:32:22.132Z,10.29
2022-10-05T01:32:32.171Z,10.29
2022-10-05T01:32:41.948Z,10.29
2022-10-05T01:32:52.252Z,10.29
2022-10-05T01:33:02.290Z,10.28
2022-10-05T01:33:12.828Z,10.27
2022-10-05T01:33:22.169Z,10.27
2022-10-05T01:33:31.382Z,10.27
2022-10-05T01:33:42.225Z,10.27
2022-10-05T01:33:52.823Z,10.27
2022-10-05T01:34:01.380Z,10.26
2022-10-05T01:34:12.833Z,10.27
2022-10-05T01:34:21.372Z,10.26
2022-10-05T01:34:32.842Z,10.27
2022-10-05T01:34:42.293Z,10.25
2022-10-05T01:34:51.372Z,10.26
2022-10-05T01:35:02.824Z,10.27
2022-10-05T01:35:11.453Z,10.25
2022-10-05T01:35:21.392Z,10.27
2022-10-05T01:35:31.362Z,10.26
2022-10-05T01:35:42.822Z,10.26
2022-10-05T01:35:51.373Z,10.23
2022-10-05T01:36:02.162Z,10.25
2022-10-05T01:36:11.394Z,10.23
2022-10-05T01:36:21.394Z,10.24
2022-10-05T01:36:32.832Z,10.24
2022-10-05T01:36:43.005Z,10.22
2022-10-05T01:36:52.323Z,10.22
2022-10-05T01:37:01.362Z,10.23
2022-10-05T01:37:12.823Z,10.22
2022-10-05T01:37:22.813Z,10.21
2022-10-05T01:37:31.362Z,10.21
2022-10-05T01:37:42.803Z,10.21
2022-10-05T01:37:51.373Z,10.20
2022-10-05T01:38:02.809Z,10.22
2022-10-05T01:38:11.352Z,10.20
2022-10-05T01:38:21.343Z,10.20
2022-10-05T01:38:31.513Z,10.20
2022-10-05T01:38:41.335Z,10.20
2022-10-05T01:38:51.353Z,10.18
2022-10-05T01:39:02.134Z,10.17
2022-10-05T01:39:12.795Z,10.17
2022-10-05T01:39:22.785Z,10.15
2022-10-05T01:39:31.341Z,10.16
2022-10-05T01:39:42.789Z,10.16
2022-10-05T01:39:51.323Z,10.15
2022-10-05T01:40:01.334Z,10.16
2022-10-05T01:40:12.805Z,10.14
2022-10-05T01:40:21.574Z,10.13
2022-10-05T01:40:32.774Z,10.14
2022-10-05T01:40:42.794Z,10.12
2022-10-05T01:40:51.315Z,10.13
2022-10-05T01:41:01.345Z,10.13
2022-10-05T01:41:11.384Z,10.13
2022-10-05T01:41:22.794Z,10.11
2022-10-05T01:41:32.155Z,10.09
2022-10-05T01:41:42.774Z,10.09
2022-10-05T01:41:51.307Z,10.08
2022-10-05T01:42:02.766Z,10.08
2022-10-05T01:42:11.655Z,10.06
2022-10-05T01:42:22.744Z,10.07
2022-10-05T01:42:32.767Z,10.05
2022-10-05T01:42:41.302Z,10.05
2022-10-05T01:42:51.698Z,10.06
2022-10-05T01:43:01.294Z,10.04
2022-10-05T01:43:12.786Z,10.04
2022-10-05T01:43:21.326Z,10.02
2022-10-05T01:43:31.321Z,10.03
2022-10-05T01:43:42.765Z,10.01
2022-10-05T01:43:51.315Z,10.00
2022-10-05T01:44:01.735Z,9.99
2022-10-05T01:44:11.285Z,9.97
2022-10-05T01:44:21.305Z,9.95
2022-10-05T01:44:32.762Z,9.94
2022-10-05T01:44:41.284Z,9.91
2022-10-05T01:44:52.757Z,9.92
2022-10-05T01:45:02.766Z,9.89
2022-10-05T01:45:12.758Z,9.89
2022-10-05T01:45:21.323Z,9.89
2022-10-05T01:45:32.822Z,9.89
2022-10-05T01:45:42.895Z,9.88
2022-10-05T01:45:52.806Z,9.88
2022-10-05T01:46:02.895Z,9.88
2022-10-05T01:46:11.364Z,9.88
2022-10-05T01:46:21.332Z,9.89
2022-10-05T01:46:32.755Z,9.88
2022-10-05T01:46:41.318Z,9.85
2022-10-05T01:46:52.770Z,9.86
2022-10-05T01:47:02.255Z,9.85
2022-10-05T01:47:11.276Z,9.86
2022-10-05T01:47:22.747Z,9.85
2022-10-05T01:47:33.486Z,9.85
2022-10-05T01:47:42.236Z,9.85
2022-10-05T01:47:51.264Z,9.86
2022-10-05T01:48:01.279Z,9.86
2022-10-05T01:48:12.715Z,9.86
2022-10-05T01:48:22.265Z,9.85
2022-10-05T01:48:31.285Z,9.85
2022-10-05T01:48:42.736Z,9.86
2022-10-05T01:48:52.717Z,9.85
2022-10-05T01:49:01.267Z,9.86
2022-10-05T01:49:11.296Z,9.87
2022-10-05T01:49:22.696Z,9.87
2022-10-05T01:49:31.257Z,9.86
2022-10-05T01:49:42.696Z,9.87
2022-10-05T01:49:51.268Z,9.85
2022-10-05T01:50:02.731Z,9.87
2022-10-05T01:50:12.709Z,9.86
2022-10-05T01:50:22.706Z,9.87
2022-10-05T01:50:32.056Z,9.87
2022-10-05T01:50:42.716Z,9.87
2022-10-05T01:50:51.249Z,9.87
2022-10-05T01:51:02.737Z,9.87
2022-10-05T01:51:12.717Z,9.83
2022-10-05T01:51:21.267Z,9.83
2022-10-05T01:51:32.706Z,9.83
2022-10-05T01:51:41.236Z,9.81
2022-10-05T01:51:52.706Z,9.82
2022-10-05T01:52:02.697Z,9.81
2022-10-05T01:52:11.248Z,9.80
2022-10-05T01:52:22.701Z,9.81
2022-10-05T01:52:32.706Z,9.78
2022-10-05T01:52:42.687Z,9.79
2022-10-05T01:52:51.236Z,9.79
2022-10-05T01:53:01.268Z,9.80
2022-10-05T01:53:12.688Z,9.79
2022-10-05T01:53:21.246Z,9.79
2022-10-05T01:53:31.228Z,9.80
2022-10-05T01:53:42.205Z,9.79
2022-10-05T01:53:52.689Z,9.78
2022-10-05T01:54:01.237Z,9.78
2022-10-05T01:54:11.258Z,9.79
2022-10-05T01:54:21.252Z,9.79
2022-10-05T01:54:31.239Z,9.79
2022-10-05T01:54:42.689Z,9.79
2022-10-05T01:54:51.220Z,9.78
2022-10-05T01:55:02.688Z,9.80
2022-10-05T01:55:11.228Z,9.78
2022-10-05T01:55:22.200Z,9.80
2022-10-05T01:55:31.228Z,9.78
2022-10-05T01:55:42.679Z,9.78
2022-10-05T01:55:51.227Z,9.77
2022-10-05T01:56:01.247Z,9.78
2022-10-05T01:56:12.678Z,9.77
2022-10-05T01:56:22.679Z,9.77
2022-10-05T01:56:32.658Z,9.77
2022-10-05T01:56:41.226Z,9.77
2022-10-05T01:56:52.671Z,9.78
2022-10-05T01:57:02.658Z,9.77
2022-10-05T01:57:11.244Z,9.77
2022-10-05T01:57:21.391Z,9.77
2022-10-05T01:57:31.308Z,9.77
2022-10-05T01:57:41.248Z,9.78
2022-10-05T01:57:51.189Z,9.78
2022-10-05T01:58:01.199Z,9.78
2022-10-05T01:58:11.456Z,9.78
2022-10-05T01:58:21.388Z,9.79
2022-10-05T01:58:31.420Z,9.79
2022-10-05T01:58:41.196Z,9.81
2022-10-05T01:58:51.387Z,9.83
2022-10-05T01:59:01.430Z,9.85
2022-10-05T01:59:11.458Z,9.87
2022-10-05T01:59:21.300Z,9.88
2022-10-05T01:59:31.428Z,9.89
2022-10-05T01:59:41.469Z,9.90
2022-10-05T01:59:52.128Z,9.91
2022-10-05T02:00:01.446Z,9.91
2022-10-05T02:00:11.468Z,9.93
2022-10-05T02:00:21.509Z,9.93
2022-10-05T02:00:31.168Z,9.98
2022-10-05T02:00:41.545Z,10.03
2022-10-05T02:00:51.540Z,10.10
2022-10-05T02:01:02.702Z,10.17
2022-10-05T02:01:12.711Z,10.24
2022-10-05T02:01:22.670Z,10.31
2022-10-05T02:01:31.230Z,10.38
2022-10-05T02:01:42.633Z,10.44
2022-10-05T02:01:52.031Z,10.53
2022-10-05T02:02:01.230Z,10.59
2022-10-05T02:02:12.707Z,10.65
2022-10-05T02:02:21.238Z,10.71
2022-10-05T02:02:32.018Z,10.79
2022-10-05T02:02:42.716Z,10.84
2022-10-05T02:02:51.159Z,10.94
2022-10-05T02:03:02.629Z,11.01
2022-10-05T02:03:11.180Z,11.07
2022-10-05T02:03:22.612Z,11.13
2022-10-05T02:03:31.249Z,11.17
2022-10-05T02:03:42.600Z,11.22
2022-10-05T02:03:52.050Z,11.27
2022-10-05T02:04:02.624Z,11.36
2022-10-05T02:04:18.676Z,11.43
2022-10-05T02:04:56.480Z,11.45
2022-10-05T02:05:01.465Z,11.62
2022-10-05T02:05:03.279Z,11.67
2022-10-05T02:05:05.335Z,11.74
2022-10-05T02:05:16.279Z,11.83
2022-10-05T02:05:26.741Z,11.90
2022-10-05T02:05:36.729Z,11.96
2022-10-05T02:05:46.760Z,12.00
2022-10-05T02:05:56.211Z,12.04
2022-10-05T02:06:05.291Z,12.08
2022-10-05T02:06:16.751Z,12.11
2022-10-05T02:06:26.730Z,12.14
2022-10-05T02:06:36.731Z,12.18
2022-10-05T02:06:46.500Z,12.22
2022-10-05T02:06:55.271Z,12.25
2022-10-05T02:07:06.733Z,12.30
2022-10-05T02:07:16.733Z,12.32
2022-10-05T02:07:25.260Z,12.35
2022-10-05T02:07:36.731Z,12.39
2022-10-05T02:07:46.728Z,12.43
2022-10-05T02:07:55.261Z,12.47
2022-10-05T02:08:05.271Z,12.51
2022-10-05T02:08:16.725Z,12.54
2022-10-05T02:08:26.714Z,12.59
2022-10-05T02:08:35.252Z,12.63
2022-10-05T02:08:45.260Z,12.67
2022-10-05T02:08:55.282Z,12.68
2022-10-05T02:09:06.721Z,12.70
2022-10-05T02:09:16.710Z,12.72
2022-10-05T02:09:25.560Z,12.74
2022-10-05T02:09:35.251Z,12.76